Gilboa, New York
Current Conditions -  °F | °C
As of 11:51 AM on Saturday 25 Oct 2014 (Local Time) from KALB Reporting Station
Broken Clouds Broken Clouds  
Wind Chill: 13°   Ceiling: 3100
Heat Index: 13°   Visibility: 10mi
Dew Point:   Wind: 0mph
Humidity: 64%   Direction: NA
Pressure: 29.77"   Gusts: NA
Location:  42.4°N, 74.45°W
Report Text: KALB 251551Z 00000KT 10SM BKN031 BKN055 BKN200 13/07 A2977 RMK AO2 SLP082 T01330067 $
Loading
Personal Weather Stations






























Interactive Weather Map
Tropical Storm Tracking
New forecast layout! Learn more

10-Day Weather Forecast

Advertisements
Track Severe Weather on mobile